Time;durP1;ratioP1;P1;durP2;ratioP2;P2;SDS_P1;SDS_P2;PMS_P1;PMS_P2;Temp;Humidity;BMP_temperature;BMP_pressure;BME280_temperature;BME280_humidity;BME280_pressure;Samples;Min_cycle;Max_cycle;Signal;HPM_P1;HPM_P2
2023/07/22 00:01:49;;;;;;;7.37;6.03;;;;;;;15.48;100.00;98051.19;4993314;28;20215;-76
2023/07/22 00:04:16;;;;;;;3.80;2.40;;;;;;;15.44;100.00;98043.91;4993654;28;20685;-76
2023/07/22 00:06:42;;;;;;;4.60;2.70;;;;;;;15.34;100.00;98052.59;4993978;28;20234;-76
2023/07/22 00:09:09;;;;;;;3.07;2.43;;;;;;;15.30;100.00;98050.66;4993806;28;20231;-76
2023/07/22 00:11:36;;;;;;;3.83;1.83;;;;;;;15.13;100.00;98050.72;4993451;28;20230;-76
2023/07/22 00:14:02;;;;;;;2.50;2.30;;;;;;;15.11;100.00;98047.44;4993966;28;20224;-75
2023/07/22 00:16:29;;;;;;;3.67;2.27;;;;;;;15.11;100.00;98047.44;4996668;28;20270;-76
2023/07/22 00:18:56;;;;;;;2.40;2.20;;;;;;;15.11;100.00;98050.13;4997063;28;20227;-76
2023/07/22 00:21:22;;;;;;;2.20;2.00;;;;;;;15.09;100.00;98051.44;4997086;28;20259;-76
2023/07/22 00:23:49;;;;;;;3.20;1.90;;;;;;;15.01;100.00;98049.22;4997021;28;20205;-76
2023/07/22 00:26:15;;;;;;;5.70;2.50;;;;;;;14.98;100.00;98060.41;4996986;28;20294;-76
2023/07/22 00:28:43;;;;;;;4.33;2.57;;;;;;;15.09;100.00;98046.09;4996814;28;20222;-76
2023/07/22 00:31:09;;;;;;;3.07;2.10;;;;;;;15.04;100.00;98038.81;4996895;28;20296;-76
2023/07/22 00:33:36;;;;;;;2.90;2.40;;;;;;;15.04;100.00;98038.81;4996862;28;20207;-76
2023/07/22 00:36:03;;;;;;;2.97;2.27;;;;;;;15.05;100.00;98045.78;4996804;28;20214;-76
2023/07/22 00:38:29;;;;;;;3.07;2.10;;;;;;;14.94;100.00;98040.53;4996294;28;20223;-76
2023/07/22 00:40:55;;;;;;;2.33;2.00;;;;;;;14.89;100.00;98048.50;4996936;28;20221;-76
2023/07/22 00:43:22;;;;;;;2.53;2.33;;;;;;;14.83;100.00;98041.47;4996647;28;20210;-76
2023/07/22 00:45:48;;;;;;;2.40;2.00;;;;;;;14.84;100.00;98043.06;4996546;28;20199;-76
2023/07/22 00:48:16;;;;;;;3.70;2.30;;;;;;;14.81;100.00;98044.38;4996636;28;20234;-76
2023/07/22 00:50:42;;;;;;;3.10;2.20;;;;;;;14.63;100.00;98044.63;4996320;28;20211;-76
2023/07/22 00:53:09;;;;;;;3.70;2.20;;;;;;;14.72;100.00;98045.03;4996510;28;20230;-76
2023/07/22 00:55:35;;;;;;;2.73;2.23;;;;;;;14.70;100.00;98042.59;4996404;28;20227;-76
2023/07/22 00:58:02;;;;;;;3.73;2.03;;;;;;;14.65;100.00;98045.19;4996077;28;20211;-76
2023/07/22 01:00:28;;;;;;;2.40;2.20;;;;;;;14.60;100.00;98037.09;4996253;28;20670;-76
2023/07/22 01:02:55;;;;;;;2.33;2.00;;;;;;;14.57;100.00;98034.91;4996415;28;20203;-76
2023/07/22 01:05:22;;;;;;;4.70;2.33;;;;;;;14.65;100.00;98031.03;4996272;28;20662;-76
2023/07/22 01:07:48;;;;;;;2.20;2.00;;;;;;;14.75;100.00;98033.84;4996536;28;20207;-76
2023/07/22 01:10:15;;;;;;;2.63;2.23;;;;;;;14.71;100.00;98028.19;4995966;28;20297;-76
2023/07/22 01:12:41;;;;;;;2.63;2.20;;;;;;;14.61;100.00;98029.88;4996099;28;20265;-76
2023/07/22 01:15:08;;;;;;;2.40;2.20;;;;;;;14.60;100.00;98026.38;4995774;28;20223;-76
2023/07/22 01:17:37;;;;;;;2.83;2.63;;;;;;;14.65;100.00;98029.13;4996199;28;20234;-76
2023/07/22 01:20:05;;;;;;;3.03;2.63;;;;;;;14.62;100.00;98032.31;4996005;28;20227;-76
2023/07/22 01:22:33;;;;;;;3.43;2.27;;;;;;;14.60;100.00;98026.38;4995863;28;20213;-76
2023/07/22 01:25:00;;;;;;;3.07;2.37;;;;;;;14.60;100.00;98025.59;4995800;28;20210;-76
2023/07/22 01:27:27;;;;;;;4.53;2.50;;;;;;;14.52;100.00;98017.97;4996197;28;20211;-76
2023/07/22 01:29:54;;;;;;;2.63;2.40;;;;;;;14.53;100.00;98027.63;4995773;28;20362;-76
2023/07/22 01:32:20;;;;;;;3.43;2.50;;;;;;;14.55;100.00;98012.94;4995582;28;20546;-76
2023/07/22 01:34:47;;;;;;;3.63;2.50;;;;;;;14.64;100.00;98016.81;4996194;28;20278;-76
2023/07/22 01:37:13;;;;;;;5.20;2.80;;;;;;;14.65;100.00;98010.41;4995586;28;20211;-76
2023/07/22 01:39:40;;;;;;;2.77;2.57;;;;;;;14.56;100.00;98003.84;4995318;28;20223;-76
2023/07/22 01:42:06;;;;;;;4.03;2.80;;;;;;;14.57;100.00;98005.47;4995097;28;20207;-76
2023/07/22 01:44:33;;;;;;;6.23;3.00;;;;;;;14.52;100.00;98004.59;4995484;28;20211;-76
2023/07/22 01:47:03;;;;;;;3.53;2.70;;;;;;;14.51;100.00;98006.44;4995431;28;20213;-76
2023/07/22 01:49:30;;;;;;;2.70;2.43;;;;;;;14.45;100.00;98011.97;4995068;28;20647;-76
2023/07/22 01:51:56;;;;;;;3.63;2.70;;;;;;;14.48;100.00;98006.94;4996116;28;20313;-76
2023/07/22 01:54:22;;;;;;;3.90;3.13;;;;;;;14.42;100.00;98012.47;4995249;28;20351;-76
2023/07/22 01:56:49;;;;;;;2.90;2.70;;;;;;;14.38;100.00;98009.47;4995126;28;20207;-76
2023/07/22 01:59:15;;;;;;;3.33;3.03;;;;;;;14.32;100.00;97998.91;4995118;28;20234;-76
2023/07/22 02:01:41;;;;;;;3.27;2.60;;;;;;;14.29;100.00;98002.09;4995216;28;20314;-76
2023/07/22 02:04:08;;;;;;;4.30;2.77;;;;;;;14.47;100.00;98013.34;4994867;28;20319;-76
2023/07/22 02:06:34;;;;;;;3.10;2.73;;;;;;;14.41;100.00;98006.31;4994876;28;20207;-76
2023/07/22 02:09:07;;;;;;;3.43;2.97;;;;;;;14.37;100.00;98005.16;4994688;28;20583;-76
2023/07/22 02:11:34;;;;;;;3.17;2.80;;;;;;;14.38;100.00;98009.47;4995073;28;20198;-76
2023/07/22 02:14:00;;;;;;;2.60;2.40;;;;;;;14.35;100.00;98009.97;4994974;28;20234;-76
2023/07/22 02:16:26;;;;;;;4.37;2.83;;;;;;;14.40;100.00;98006.53;4994833;28;20230;-76
2023/07/22 02:18:53;;;;;;;4.83;2.70;;;;;;;14.39;100.00;98015.63;4995124;28;20227;-76
2023/07/22 02:21:19;;;;;;;3.00;2.70;;;;;;;14.35;100.00;98015.31;4994639;28;20667;-76
2023/07/22 02:23:45;;;;;;;3.17;2.80;;;;;;;14.30;100.00;98020.56;4994549;28;20700;-76
2023/07/22 02:26:12;;;;;;;3.83;2.60;;;;;;;14.32;100.00;98017.63;4994776;28;20566;-76
2023/07/22 02:28:38;;;;;;;3.10;2.80;;;;;;;14.29;100.00;98018.94;4994656;28;20234;-76
2023/07/22 02:31:06;;;;;;;3.57;2.80;;;;;;;14.32;100.00;98018.47;4994371;28;20670;-76
2023/07/22 02:33:32;;;;;;;3.40;2.40;;;;;;;14.34;100.00;98019.00;4994896;28;20213;-76
2023/07/22 02:35:59;;;;;;;3.67;3.03;;;;;;;14.27;100.00;98026.41;4994550;28;20238;-76
2023/07/22 02:38:25;;;;;;;3.53;2.90;;;;;;;14.31;100.00;98022.19;4993471;28;20230;-76
2023/07/22 02:40:52;;;;;;;5.00;2.90;;;;;;;14.29;100.00;98015.47;4994619;28;20250;-76
2023/07/22 02:43:18;;;;;;;3.53;2.87;;;;;;;14.28;100.00;98024.53;4994453;28;20261;-76
2023/07/22 02:45:44;;;;;;;2.93;2.67;;;;;;;14.26;100.00;98024.78;4994306;28;20218;-76
2023/07/22 02:48:11;;;;;;;3.30;3.00;;;;;;;14.26;100.00;98027.47;4994462;28;20613;-76
2023/07/22 02:50:37;;;;;;;4.40;2.73;;;;;;;14.14;100.00;98026.69;4994115;28;20219;-76
2023/07/22 02:53:04;;;;;;;3.00;2.70;;;;;;;14.12;100.00;98020.78;4994444;28;20285;-76
2023/07/22 02:55:30;;;;;;;3.80;2.63;;;;;;;14.09;100.00;98018.59;4994200;28;20227;-76
2023/07/22 02:57:56;;;;;;;3.90;2.80;;;;;;;14.08;100.00;98014.31;4994172;28;20218;-76
2023/07/22 03:00:24;;;;;;;2.93;2.47;;;;;;;14.15;100.00;98020.28;4994010;28;20246;-76
2023/07/22 03:02:52;;;;;;;3.00;2.80;;;;;;;14.15;100.00;98022.97;4994024;28;20203;-76
2023/07/22 03:05:19;;;;;;;4.20;3.00;;;;;;;14.01;100.00;98016.31;4994216;28;20238;-76
2023/07/22 03:07:45;;;;;;;3.00;2.70;;;;;;;14.06;100.00;98013.72;4994475;28;20218;-76
2023/07/22 03:10:12;;;;;;;2.90;2.40;;;;;;;14.13;100.00;98013.56;4993891;28;20596;-76
2023/07/22 03:12:38;;;;;;;3.70;2.60;;;;;;;14.05;100.00;98006.75;4994177;28;20211;-76
2023/07/22 03:15:08;;;;;;;3.37;2.57;;;;;;;14.07;100.00;98015.31;4994280;28;20227;-76
2023/07/22 03:17:34;;;;;;;4.47;2.87;;;;;;;14.08;100.00;98013.47;4993836;28;20690;-76
2023/07/22 03:20:01;;;;;;;3.97;2.57;;;;;;;14.03;100.00;98008.03;4994065;28;20223;-76
2023/07/22 03:22:28;;;;;;;3.60;2.93;;;;;;;14.00;100.00;98009.34;4993784;28;20298;-76
2023/07/22 03:24:54;;;;;;;3.53;2.60;;;;;;;14.02;100.00;98003.75;4993851;28;20203;-76
2023/07/22 03:27:21;;;;;;;3.20;2.90;;;;;;;14.04;100.00;98004.31;4994184;28;20552;-76
2023/07/22 03:29:47;;;;;;;2.60;2.40;;;;;;;14.09;100.00;98013.25;4993597;28;20227;-76
2023/07/22 03:32:14;;;;;;;3.07;2.60;;;;;;;14.17;100.00;98001.34;4994018;28;20203;-76
2023/07/22 03:34:41;;;;;;;4.30;2.53;;;;;;;14.14;100.00;97999.97;4993822;28;20223;-76
2023/07/22 03:37:09;;;;;;;3.03;2.73;;;;;;;14.12;100.00;98006.59;4993959;28;20302;-76
2023/07/22 03:39:35;;;;;;;2.93;2.73;;;;;;;13.97;100.00;98006.34;4993795;28;20321;-76
2023/07/22 03:42:03;;;;;;;3.17;2.83;;;;;;;14.02;100.00;98012.56;4993867;28;20206;-76
2023/07/22 03:44:30;;;;;;;5.47;3.07;;;;;;;14.05;100.00;98013.94;4993722;28;20207;-76
2023/07/22 03:46:56;;;;;;;3.03;2.63;;;;;;;14.08;100.00;98014.31;4993905;28;20217;-76
2023/07/22 03:49:22;;;;;;;2.87;2.63;;;;;;;14.10;100.00;98008.69;4994896;28;20239;-76
2023/07/22 03:51:49;;;;;;;3.07;2.70;;;;;;;14.02;100.00;98015.25;4997418;28;20210;-76
2023/07/22 03:54:15;;;;;;;4.07;2.70;;;;;;;13.91;100.00;98020.66;4997749;28;20209;-76
2023/07/22 03:56:42;;;;;;;3.57;2.40;;;;;;;13.90;100.00;98019.03;4997747;28;20231;-76
2023/07/22 03:59:08;;;;;;;3.17;2.67;;;;;;;13.99;100.00;98015.75;4997395;28;20227;-76
2023/07/22 04:01:34;;;;;;;3.03;2.73;;;;;;;14.08;100.00;98014.31;4995657;28;20215;-76
2023/07/22 04:04:01;;;;;;;3.90;3.13;;;;;;;13.99;100.00;98023.75;4995095;28;20203;-76
2023/07/22 04:06:27;;;;;;;2.80;2.53;;;;;;;14.06;100.00;98019.06;4997559;28;20202;-76
2023/07/22 04:08:53;;;;;;;2.90;2.63;;;;;;;14.03;100.00;98018.75;4997037;28;20609;-76
2023/07/22 04:11:20;;;;;;;4.73;3.13;;;;;;;14.08;100.00;98011.63;4996393;28;20291;-76
2023/07/22 04:13:46;;;;;;;3.57;2.60;;;;;;;14.15;100.00;98016.81;4996267;28;20203;-76
2023/07/22 04:16:12;;;;;;;3.27;2.90;;;;;;;14.15;100.00;98016.81;4995583;28;20266;-76
2023/07/22 04:18:39;;;;;;;3.30;3.00;;;;;;;14.15;100.00;98006.91;4993301;28;20223;-76
2023/07/22 04:21:05;;;;;;;3.50;2.60;;;;;;;14.05;100.00;98020.13;4996748;28;20207;-76
2023/07/22 04:23:32;;;;;;;3.43;3.00;;;;;;;14.08;100.00;98016.97;4996976;28;20199;-76
2023/07/22 04:25:59;;;;;;;3.10;2.90;;;;;;;14.16;100.00;98016.56;4997048;28;20209;-76
2023/07/22 04:28:25;;;;;;;5.97;3.07;;;;;;;14.19;100.00;98013.41;4996718;28;20729;-76
2023/07/22 04:30:57;;;;;;;3.30;3.00;;;;;;;14.15;100.00;98011.47;4996985;28;20215;-76
2023/07/22 04:33:24;;;;;;;4.47;2.80;;;;;;;14.19;100.00;98012.56;4997023;28;20218;-76
2023/07/22 04:35:51;;;;;;;4.30;3.03;;;;;;;14.23;100.00;98016.44;4996481;28;20589;-76
2023/07/22 04:38:17;;;;;;;5.10;2.80;;;;;;;14.18;100.00;98011.78;4996625;28;20227;-76
2023/07/22 04:40:44;;;;;;;3.37;2.97;;;;;;;14.27;100.00;98010.38;4996485;28;20559;-76
2023/07/22 04:43:12;;;;;;;3.47;2.50;;;;;;;14.33;100.00;98006.72;4996724;28;20211;-76
2023/07/22 04:45:40;;;;;;;3.10;2.90;;;;;;;14.38;100.00;98014.00;4996606;28;20214;-76
2023/07/22 04:48:06;;;;;;;2.87;2.67;;;;;;;14.48;100.00;98006.13;4992082;28;20276;-76
2023/07/22 04:50:33;;;;;;;4.27;2.80;;;;;;;14.59;100.00;98008.72;4989552;28;20635;-76
2023/07/22 04:53:00;;;;;;;3.07;2.80;;;;;;;14.62;100.00;98013.59;4991052;28;20686;-76
2023/07/22 04:55:29;;;;;;;3.63;2.53;;;;;;;14.71;100.00;98016.66;4994715;28;20226;-76
2023/07/22 04:57:56;;;;;;;4.73;4.00;;;;;;;14.85;100.00;98013.38;4992563;28;20208;-76
2023/07/22 05:00:22;;;;;;;4.23;2.80;;;;;;;14.85;100.00;98017.91;4993535;28;20210;-76
2023/07/22 05:02:49;;;;;;;3.27;2.60;;;;;;;14.88;100.00;98023.59;4994052;28;20606;-76
2023/07/22 05:05:16;;;;;;;3.10;2.70;;;;;;;14.89;100.00;98027.06;4993582;28;20223;-76
2023/07/22 05:07:45;;;;;;;2.57;2.37;;;;;;;14.91;100.00;98017.75;4994147;28;20204;-76
2023/07/22 05:10:13;;;;;;;2.73;2.53;;;;;;;15.12;100.00;98018.81;4994463;28;20590;-76
2023/07/22 05:12:40;;;;;;;4.00;3.10;;;;;;;15.49;100.00;98017.97;4995855;28;20207;-76
2023/07/22 05:15:07;;;;;;;2.67;2.47;;;;;;;15.84;100.00;98017.56;4995727;28;20233;-76
2023/07/22 05:17:34;;;;;;;3.67;2.70;;;;;;;16.28;100.00;98029.78;4996077;28;20213;-76
2023/07/22 05:20:00;;;;;;;2.27;2.00;;;;;;;16.50;100.00;98036.69;4995663;28;20227;-76
2023/07/22 05:22:27;;;;;;;3.57;2.30;;;;;;;16.59;100.00;98042.38;4995622;28;20219;-76
2023/07/22 05:24:53;;;;;;;2.37;2.00;;;;;;;16.59;100.00;98032.44;4995688;28;20240;-76
2023/07/22 05:27:19;;;;;;;2.63;2.43;;;;;;;16.33;100.00;98037.84;4995741;28;20207;-76
2023/07/22 05:29:46;;;;;;;3.27;2.50;;;;;;;16.47;100.00;98045.22;4995639;28;20227;-76
2023/07/22 05:32:12;;;;;;;2.70;2.50;;;;;;;16.40;100.00;98046.53;4995823;28;20258;-76
2023/07/22 05:34:38;;;;;;;2.93;2.47;;;;;;;16.10;100.00;98035.50;4996168;28;20207;-76
2023/07/22 05:37:05;;;;;;;3.07;2.80;;;;;;;15.96;100.00;98035.09;4995669;28;20227;-76
2023/07/22 05:39:32;;;;;;;3.13;2.50;;;;;;;16.15;100.00;98043.59;4995140;28;20227;-76
2023/07/22 05:41:58;;;;;;;2.90;2.60;;;;;;;16.03;100.00;98042.94;4995537;28;20273;-76
2023/07/22 05:44:25;;;;;;;3.30;2.70;;;;;;;15.97;100.00;98042.06;4995224;28;20217;-76
2023/07/22 05:46:51;;;;;;;2.97;2.50;;;;;;;16.05;100.00;98038.94;4995524;28;20246;-76
2023/07/22 05:49:17;;;;;;;4.60;2.63;;;;;;;16.02;100.00;98050.16;4995255;28;20275;-76
2023/07/22 05:51:44;;;;;;;2.97;2.43;;;;;;;16.14;100.00;98048.13;4995339;28;20206;-76
2023/07/22 05:54:10;;;;;;;2.70;2.50;;;;;;;16.25;100.00;98054.41;4995186;28;20203;-76
2023/07/22 05:56:36;;;;;;;3.03;2.67;;;;;;;16.27;100.00;98054.94;4994887;28;20239;-76
2023/07/22 05:59:03;;;;;;;2.63;2.43;;;;;;;16.53;100.00;98064.88;4995116;28;20714;-76
2023/07/22 06:01:29;;;;;;;3.00;2.70;;;;;;;16.34;100.00;98075.16;4994922;28;20693;-76
2023/07/22 06:03:56;;;;;;;5.33;2.60;;;;;;;16.24;100.00;98063.53;4995325;28;20223;-76
2023/07/22 06:06:22;;;;;;;4.00;2.67;;;;;;;16.26;100.00;98062.22;4995121;28;20214;-76
2023/07/22 06:08:48;;;;;;;3.90;2.87;;;;;;;16.49;100.00;98080.69;4995166;28;20241;-76
2023/07/22 06:11:15;;;;;;;3.07;2.53;;;;;;;16.45;100.00;98084.94;4994686;28;20207;-76
2023/07/22 06:13:41;;;;;;;3.83;2.60;;;;;;;16.32;100.00;98073.78;4994751;28;20203;-76
2023/07/22 06:16:07;;;;;;;3.27;2.77;;;;;;;16.40;100.00;98076.84;4994657;28;20780;-76
2023/07/22 06:18:34;;;;;;;3.30;3.00;;;;;;;16.44;100.00;98088.69;4994896;28;20223;-76
2023/07/22 06:21:00;;;;;;;2.97;2.40;;;;;;;16.52;100.00;98084.75;4994820;28;20280;-76
2023/07/22 06:23:26;;;;;;;5.07;3.20;;;;;;;16.54;100.00;98086.09;4994766;28;20211;-76
2023/07/22 06:25:53;;;;;;;7.27;3.00;;;;;;;16.58;100.00;98087.22;4994709;28;20203;-76
2023/07/22 06:28:19;;;;;;;5.23;3.10;;;;;;;16.60;100.00;98087.75;4994633;28;20234;-76
2023/07/22 06:30:46;;;;;;;3.33;2.90;;;;;;;16.68;100.00;98083.78;4994764;28;20211;-76
2023/07/22 06:33:12;;;;;;;3.87;3.10;;;;;;;16.89;100.00;98091.75;4994575;28;20327;-76
2023/07/22 06:35:38;;;;;;;3.80;2.80;;;;;;;16.91;100.00;98083.41;4994578;28;20230;-76
2023/07/22 06:38:05;;;;;;;4.23;2.97;;;;;;;17.04;100.00;98091.84;4994783;28;20214;-76
2023/07/22 06:40:31;;;;;;;3.73;2.93;;;;;;;17.11;100.00;98084.38;4994440;28;20218;-76
2023/07/22 06:42:57;;;;;;;6.50;3.10;;;;;;;17.18;100.00;98089.50;4994357;28;20207;-71
2023/07/22 06:45:24;;;;;;;4.10;3.00;;;;;;;17.38;100.00;98087.72;4994259;28;20207;-71
2023/07/22 06:47:50;;;;;;;4.13;2.53;;;;;;;17.35;100.00;98093.66;4994295;28;20203;-71
2023/07/22 06:50:16;;;;;;;3.27;3.00;;;;;;;17.39;100.00;98086.72;4993971;28;20225;-71
2023/07/22 06:52:43;;;;;;;5.07;2.90;;;;;;;17.45;100.00;98088.34;4994456;28;20215;-71
2023/07/22 06:55:09;;;;;;;5.30;4.03;;;;;;;17.48;100.00;98093.22;4994331;28;20203;-72
2023/07/22 06:57:35;;;;;;;3.87;2.93;;;;;;;17.64;100.00;98094.09;4994267;28;20207;-72
2023/07/22 07:00:02;;;;;;;4.20;2.90;;;;;;;17.69;100.00;98092.19;4994107;28;20227;-71
2023/07/22 07:02:28;;;;;;;4.80;2.60;;;;;;;17.66;100.00;98095.44;4994081;28;20297;-72
2023/07/22 07:04:55;;;;;;;4.67;2.60;;;;;;;17.56;100.00;98092.69;4993642;28;20298;-71
2023/07/22 07:07:21;;;;;;;3.40;3.00;;;;;;;17.75;98.65;98101.94;4994013;28;20210;-72
2023/07/22 07:09:48;;;;;;;7.97;2.77;;;;;;;17.84;100.00;98091.47;4994062;28;20285;-72
2023/07/22 07:12:14;;;;;;;2.70;2.50;;;;;;;17.90;100.00;98093.91;4993888;28;20286;-72
2023/07/22 07:14:42;;;;;;;4.73;2.60;;;;;;;18.00;100.00;98093.94;4993972;28;20706;-72
2023/07/22 07:17:08;;;;;;;3.80;2.83;;;;;;;18.21;100.00;98090.22;4994633;28;20294;-72
2023/07/22 07:19:34;;;;;;;3.77;2.80;;;;;;;18.37;96.96;98091.88;4994239;28;20274;-72
2023/07/22 07:22:01;;;;;;;2.97;2.67;;;;;;;18.38;98.06;98085.44;4994204;28;20207;-72
2023/07/22 07:24:28;;;;;;;3.57;2.90;;;;;;;18.44;94.45;98092.44;4995402;28;20203;-72
2023/07/22 07:26:54;;;;;;;3.33;2.77;;;;;;;18.44;94.15;98087.03;4997889;28;20210;-72
2023/07/22 07:29:20;;;;;;;3.90;2.83;;;;;;;18.48;96.70;98087.31;4997875;28;20229;-72
2023/07/22 07:31:47;;;;;;;5.27;3.70;;;;;;;18.56;93.27;98093.00;4997876;28;20207;-73
2023/07/22 07:34:13;;;;;;;2.90;2.70;;;;;;;18.54;94.17;98094.31;4997776;28;20207;-72
2023/07/22 07:36:39;;;;;;;3.47;2.73;;;;;;;18.87;95.87;98089.19;4997525;28;20226;-72
2023/07/22 07:39:06;;;;;;;3.60;2.77;;;;;;;18.94;93.03;98097.81;4997732;28;20314;-72
2023/07/22 07:41:32;;;;;;;2.90;2.57;;;;;;;19.25;91.75;98088.63;4997548;28;20207;-72
2023/07/22 07:43:58;;;;;;;2.83;2.63;;;;;;;19.20;92.83;98101.28;4997237;28;20215;-71
2023/07/22 07:46:28;;;;;;;6.20;3.20;;;;;;;19.14;90.73;98089.69;4997453;28;20231;-72
2023/07/22 07:48:56;;;;;;;3.23;2.63;;;;;;;19.26;91.28;98092.94;4997475;28;20281;-72
2023/07/22 07:51:26;;;;;;;3.97;3.23;;;;;;;19.30;89.06;98085.09;4997687;28;20279;-72
2023/07/22 07:53:53;;;;;;;3.67;2.67;;;;;;;19.27;90.08;98086.47;4997334;28;20248;-72
2023/07/22 07:56:20;;;;;;;3.80;2.27;;;;;;;19.43;90.53;98081.84;4997300;28;20223;-72
2023/07/22 07:58:48;;;;;;;3.87;2.40;;;;;;;19.46;91.47;98087.47;4997066;28;20234;-72
2023/07/22 08:01:15;;;;;;;3.07;2.77;;;;;;;19.67;90.30;98085.50;4997188;28;20211;-72
2023/07/22 08:03:42;;;;;;;2.60;2.40;;;;;;;19.80;90.76;98076.84;4997254;28;20210;-72
2023/07/22 08:06:10;;;;;;;5.13;3.10;;;;;;;20.21;87.88;98078.25;4997247;28;20211;-75
2023/07/22 08:08:37;;;;;;;4.00;2.90;;;;;;;20.22;86.78;98084.47;4996898;28;20242;-71
2023/07/22 08:11:05;;;;;;;4.77;2.33;;;;;;;20.54;87.72;98063.19;4997100;28;20207;-71
2023/07/22 08:13:33;;;;;;;3.47;2.30;;;;;;;20.79;80.38;98079.97;4996752;28;20207;-71
2023/07/22 08:16:00;;;;;;;3.00;2.00;;;;;;;21.06;77.14;98079.50;4996877;28;20338;-71
2023/07/22 08:18:26;;;;;;;3.30;2.20;;;;;;;20.88;76.46;98072.06;4996707;28;20231;-72
2023/07/22 08:20:54;;;;;;;2.87;2.60;;;;;;;20.92;77.62;98071.25;4996903;28;20210;-72
2023/07/22 08:23:21;;;;;;;3.37;2.37;;;;;;;21.04;77.53;98068.16;4996583;28;20203;-71
2023/07/22 08:25:49;;;;;;;2.20;2.00;;;;;;;21.05;74.29;98064.38;4997006;28;20215;-72
2023/07/22 08:28:16;;;;;;;3.53;2.00;;;;;;;21.28;72.77;98069.00;4996339;28;20573;-72
2023/07/22 08:30:42;;;;;;;2.50;1.97;;;;;;;21.44;71.33;98062.34;4996508;28;20203;-71
2023/07/22 08:33:12;;;;;;;3.35;1.80;;;;;;;21.19;66.80;98062.59;4996672;28;20226;-72
2023/07/22 08:35:39;;;;;;;2.17;1.80;;;;;;;21.29;66.51;98057.91;4996384;28;20215;-72
2023/07/22 08:38:06;;;;;;;1.60;1.50;;;;;;;21.47;67.01;98061.78;4996404;28;20216;-72
2023/07/22 08:40:37;;;;;;;2.90;2.03;;;;;;;21.52;64.80;98059.00;4996808;28;20211;-71
2023/07/22 08:43:05;;;;;;;2.87;2.20;;;;;;;21.51;64.23;98046.53;4996207;28;20270;-71
2023/07/22 08:45:36;;;;;;;3.42;2.15;;;;;;;21.44;64.59;98059.63;4995906;28;20209;-71
2023/07/22 08:48:07;;;;;;;1.73;1.60;;;;;;;21.49;62.41;98048.75;4996088;28;20210;-71
2023/07/22 08:50:37;;;;;;;4.13;2.30;;;;;;;21.43;64.36;98056.09;4995807;28;20215;-71
2023/07/22 08:53:05;;;;;;;2.47;1.90;;;;;;;21.25;70.63;98019.00;4996035;28;20210;-71
2023/07/22 08:55:31;;;;;;;3.07;2.07;;;;;;;21.35;71.41;98053.25;4996370;28;20211;-71
2023/07/22 08:57:59;;;;;;;2.57;1.90;;;;;;;21.41;72.55;98049.38;4995865;28;20317;-71
2023/07/22 09:00:26;;;;;;;2.30;1.90;;;;;;;21.34;68.07;98060.53;4994542;28;20203;-71
2023/07/22 09:02:53;;;;;;;1.60;1.50;;;;;;;21.90;64.68;98042.56;4996037;28;20211;-71
2023/07/22 09:05:19;;;;;;;4.40;1.77;;;;;;;22.24;66.13;98039.66;4995680;28;20250;-71
2023/07/22 09:07:49;;;;;;;2.88;2.40;;;;;;;21.98;64.71;98043.81;4995968;28;20210;-71
2023/07/22 09:10:16;;;;;;;2.38;2.15;;;;;;;22.00;64.10;98049.72;4995568;28;20732;-71
2023/07/22 09:12:42;;;;;;;2.25;2.05;;;;;;;21.92;66.72;98048.50;4995890;28;20204;-71
2023/07/22 09:15:13;;;;;;;2.72;2.17;;;;;;;21.96;66.79;98051.41;4995730;28;20211;-71
2023/07/22 09:17:40;;;;;;;2.35;2.10;;;;;;;21.74;69.37;98060.09;4996380;28;20274;-71
2023/07/22 09:20:07;;;;;;;2.92;2.22;;;;;;;21.75;65.86;98056.28;4995284;28;20566;-71
2023/07/22 09:22:34;;;;;;;1.63;1.52;;;;;;;21.87;67.14;98050.44;4995831;28;20250;-73
2023/07/22 09:25:21;;;;;;;5.78;1.90;;;;;;;21.65;65.88;98060.97;4996104;28;20594;-71
2023/07/22 09:27:52;;;;;;;2.15;1.95;;;;;;;21.74;67.02;98053.84;4995668;28;20241;-71
2023/07/22 09:30:22;;;;;;;2.17;1.98;;;;;;;21.74;68.25;98051.16;4995362;28;20636;-71
2023/07/22 09:32:49;;;;;;;2.28;1.88;;;;;;;22.07;66.58;98052.91;4995555;28;20233;-71
2023/07/22 09:35:15;;;;;;;2.28;1.85;;;;;;;22.04;66.23;98050.75;4995299;28;20266;-71
2023/07/22 09:37:42;;;;;;;2.63;2.17;;;;;;;22.11;66.90;98051.22;4995358;28;20231;-70
2023/07/22 09:40:24;;;;;;;3.45;2.25;;;;;;;21.97;64.75;98043.00;4995377;28;20223;-70
2023/07/22 09:42:56;;;;;;;2.20;2.00;;;;;;;22.06;64.32;98043.97;4995126;28;20203;-70
2023/07/22 09:45:24;;;;;;;2.92;1.80;;;;;;;22.11;63.92;98045.81;4995158;28;20207;-74
2023/07/22 09:47:52;;;;;;;2.40;1.83;;;;;;;22.53;66.43;98040.31;4994637;28;20203;-73
2023/07/22 09:50:24;;;;;;;2.25;1.80;;;;;;;22.40;57.89;98035.59;4995341;28;20219;-73
2023/07/22 09:52:52;;;;;;;3.50;2.22;;;;;;;22.32;57.33;98038.97;4995429;28;20214;-72
2023/07/22 09:55:21;;;;;;;2.10;1.90;;;;;;;22.18;59.47;98032.69;4994627;28;20638;-73
2023/07/22 09:57:53;;;;;;;1.80;1.70;;;;;;;22.01;56.27;98038.63;4994684;28;20262;-73
2023/07/22 10:00:20;;;;;;;1.63;1.52;;;;;;;22.03;52.30;98039.13;4994860;28;20557;-72
2023/07/22 10:02:49;;;;;;;2.58;2.00;;;;;;;22.52;54.05;98034.06;4995165;28;20210;-73
2023/07/22 10:05:20;;;;;;;6.65;2.85;;;;;;;22.65;49.12;98025.19;4994641;28;20238;-73
2023/07/22 10:07:49;;;;;;;3.40;2.17;;;;;;;22.77;48.83;98038.25;4994469;28;20534;-73
2023/07/22 10:10:19;;;;;;;6.75;3.33;;;;;;;22.87;49.07;98028.03;4994714;28;20261;-71
2023/07/22 10:12:46;;;;;;;2.20;1.88;;;;;;;22.84;48.78;98022.44;4994657;28;20198;-72
2023/07/22 10:15:14;;;;;;;2.88;1.83;;;;;;;22.80;47.91;98027.63;4994603;28;20207;-72
2023/07/22 10:17:43;;;;;;;2.25;1.48;;;;;;;22.34;44.75;98024.03;4994555;28;20226;-72
2023/07/22 10:20:14;;;;;;;2.10;1.77;;;;;;;22.66;49.05;98029.50;4994338;28;20726;-72
2023/07/22 10:22:43;;;;;;;3.20;2.00;;;;;;;22.76;46.93;98033.94;4994481;28;20634;-72
2023/07/22 10:25:11;;;;;;;1.80;1.63;;;;;;;22.74;47.07;98031.53;4994445;28;20551;-72
2023/07/22 10:27:41;;;;;;;3.30;1.85;;;;;;;22.69;45.85;98034.31;4994525;28;20214;-72
2023/07/22 10:30:10;;;;;;;2.35;1.48;;;;;;;22.71;46.92;98028.63;4994526;28;20262;-72
2023/07/22 10:32:39;;;;;;;2.10;1.52;;;;;;;22.87;47.64;98019.09;4994956;28;20203;-75
2023/07/22 10:35:09;;;;;;;2.20;1.90;;;;;;;23.01;49.13;98026.16;4994405;28;20213;-75
2023/07/22 10:37:37;;;;;;;2.17;1.85;;;;;;;23.19;52.21;98022.59;4994277;28;20247;-76
2023/07/22 10:40:19;;;;;;;1.98;1.50;;;;;;;23.71;47.29;98018.56;4994329;28;20230;-75
2023/07/22 10:42:57;;;;;;;1.70;1.60;;;;;;;23.22;49.35;98015.75;4993958;28;20570;-75
2023/07/22 10:45:30;;;;;;;1.98;1.70;;;;;;;23.13;48.14;98012.94;4994252;28;20199;-77
2023/07/22 10:48:06;;;;;;;2.53;1.60;;;;;;;23.29;47.95;98013.47;4993794;28;20187;-77
2023/07/22 10:50:49;;;;;;;2.42;2.22;;;;;;;23.38;47.78;98009.72;4994078;28;20218;-77
2023/07/22 10:53:30;;;;;;;1.60;1.50;;;;;;;23.29;46.81;98008.03;4994663;28;20195;-77
2023/07/22 10:56:12;;;;;;;1.55;1.45;;;;;;;23.30;45.54;98005.03;4994205;28;20290;-77
2023/07/22 10:58:45;;;;;;;1.98;1.50;;;;;;;22.91;46.27;97998.41;4993502;28;20309;-77
2023/07/22 11:01:29;;;;;;;1.58;1.45;;;;;;;22.95;46.85;98002.16;4994197;28;20207;-77
2023/07/22 11:04:18;;;;;;;2.08;1.77;;;;;;;22.92;47.83;98005.47;4994292;28;20207;-77
2023/07/22 11:06:45;;;;;;;1.75;1.65;;;;;;;22.84;47.14;98003.44;4994426;28;20195;-77
2023/07/22 11:09:30;;;;;;;4.68;1.75;;;;;;;22.79;50.23;98001.63;4994072;28;20270;-77
2023/07/22 11:11:59;;;;;;;2.97;2.22;;;;;;;22.65;48.20;98000.00;4994014;28;20210;-77
2023/07/22 11:14:28;;;;;;;2.17;1.45;;;;;;;22.62;47.93;98000.59;4993709;28;20203;-77
2023/07/22 11:16:55;;;;;;;3.00;2.22;;;;;;;22.49;51.44;98001.34;4993763;28;20222;-77
2023/07/22 11:19:24;;;;;;;1.70;1.60;;;;;;;22.57;50.11;97997.97;4993607;28;20710;-77
2023/07/22 11:21:52;;;;;;;1.80;1.70;;;;;;;22.56;49.80;97989.03;4993583;28;20561;-77
2023/07/22 11:24:20;;;;;;;3.90;2.72;;;;;;;22.60;49.93;97992.75;4993816;28;20218;-76
2023/07/22 11:26:48;;;;;;;6.25;4.30;;;;;;;22.67;50.41;97993.19;4993582;28;20203;-76
2023/07/22 11:29:15;;;;;;;4.95;3.13;;;;;;;22.85;48.49;97996.91;4993405;28;20289;-76
2023/07/22 11:31:45;;;;;;;5.18;3.58;;;;;;;22.99;49.82;97992.31;4993628;28;20207;-76